Time;durP1;ratioP1;P1;durP2;ratioP2;P2;SDS_P1;SDS_P2;PMS_P1;PMS_P2;Temp;Humidity;BMP_temperature;BMP_pressure;BME280_temperature;BME280_humidity;BME280_pressure;Samples;Min_cycle;Max_cycle;Signal;HPM_P1;HPM_P2
2023/01/25 00:00:42;;;;;;;25.47;16.40;;;0.70;1.00;;;;;;5050062;28;20800;-58
2023/01/25 00:03:09;;;;;;;27.50;17.90;;;0.70;1.00;;;;;;5034198;28;20706;-58
2023/01/25 00:05:36;;;;;;;32.87;21.13;;;0.60;1.00;;;;;;5050267;28;20207;-59
2023/01/25 00:08:03;;;;;;;32.27;21.90;;;0.60;1.00;;;;;;5049019;28;20729;-58
2023/01/25 00:10:30;;;;;;;30.37;19.37;;;0.60;1.00;;;;;;5052019;28;20693;-59
2023/01/25 00:12:57;;;;;;;28.47;20.10;;;0.60;1.00;;;;;;5052375;28;20204;-59
2023/01/25 00:15:24;;;;;;;29.37;19.93;;;0.60;1.00;;;;;;5052782;28;20214;-59
2023/01/25 00:17:51;;;;;;;25.57;17.57;;;0.60;1.00;;;;;;5051097;28;20302;-59
2023/01/25 00:20:18;;;;;;;26.80;18.83;;;0.50;1.00;;;;;;5036851;28;20292;-59
2023/01/25 00:22:45;;;;;;;25.20;18.40;;;0.60;1.00;;;;;;5047356;28;20199;-60
2023/01/25 00:25:12;;;;;;;27.47;19.27;;;0.60;1.00;;;;;;5036788;28;20250;-59
2023/01/25 00:27:39;;;;;;;24.90;17.87;;;0.60;1.00;;;;;;5052042;28;20634;-58
2023/01/25 00:30:07;;;;;;;25.33;17.90;;;0.60;1.00;;;;;;5048463;28;20579;-58
2023/01/25 00:32:47;;;;;;;27.43;19.03;;;0.70;1.00;;;;;;5051910;28;20201;-59
2023/01/25 00:35:14;;;;;;;24.10;16.87;;;0.70;1.00;;;;;;5050335;28;20297;-59
2023/01/25 00:37:45;;;;;;;27.67;18.47;;;0.70;1.00;;;;;;5050394;28;20269;-59
2023/01/25 00:40:12;;;;;;;25.20;18.47;;;0.70;1.00;;;;;;5030832;28;20210;-57
2023/01/25 00:42:40;;;;;;;27.47;18.80;;;0.50;1.00;;;;;;5028614;28;20218;-61
2023/01/25 00:45:09;;;;;;;26.40;18.57;;;0.60;1.00;;;;;;5052386;28;20200;-60
2023/01/25 00:47:36;;;;;;;30.57;20.07;;;0.50;1.00;;;;;;5057597;28;20210;-60
2023/01/25 00:50:05;;;;;;;30.03;20.27;;;0.40;1.00;;;;;;5052518;28;22069;-58
2023/01/25 00:52:33;;;;;;;29.73;19.87;;;0.50;1.00;;;;;;5012623;28;20302;-62
2023/01/25 00:55:00;;;;;;;28.57;18.67;;;0.50;1.00;;;;;;5039238;28;20191;-62
2023/01/25 00:57:27;;;;;;;31.87;20.40;;;0.40;1.00;;;;;;5055897;28;20294;-61
2023/01/25 00:59:54;;;;;;;35.97;21.83;;;0.50;1.00;;;;;;5024819;28;20195;-58
2023/01/25 01:02:21;;;;;;;28.80;18.70;;;0.50;1.00;;;;;;5056764;28;20538;-61
2023/01/25 01:04:51;;;;;;;28.80;19.17;;;0.40;1.00;;;;;;5055494;28;20331;-61
2023/01/25 01:07:18;;;;;;;26.63;18.40;;;0.30;1.00;;;;;;5051501;28;20567;-59
2023/01/25 01:09:45;;;;;;;28.63;19.23;;;0.40;1.00;;;;;;5037451;28;20203;-58
2023/01/25 01:12:12;;;;;;;25.50;17.97;;;0.30;1.00;;;;;;5056078;28;20417;-59
2023/01/25 01:14:41;;;;;;;28.37;18.97;;;0.20;1.00;;;;;;5058120;28;20218;-60
2023/01/25 01:17:08;;;;;;;28.83;19.87;;;0.20;1.00;;;;;;5056340;28;20207;-60
2023/01/25 01:19:38;;;;;;;32.60;20.93;;;0.30;1.00;;;;;;5056134;28;20235;-61
2023/01/25 01:22:06;;;;;;;33.97;21.87;;;0.40;1.00;;;;;;5038283;28;20311;-60
2023/01/25 01:24:36;;;;;;;29.97;20.83;;;0.40;1.00;;;;;;5058034;28;20662;-59
2023/01/25 01:27:03;;;;;;;30.13;20.53;;;0.40;1.00;;;;;;5050585;28;20229;-58
2023/01/25 01:29:30;;;;;;;29.60;20.33;;;0.30;1.00;;;;;;5058936;28;20288;-61
2023/01/25 01:31:57;;;;;;;28.73;19.87;;;0.30;1.00;;;;;;5040018;28;20268;-61
2023/01/25 01:34:26;;;;;;;25.67;18.53;;;0.40;1.00;;;;;;5057639;28;20258;-64
2023/01/25 01:36:53;;;;;;;28.30;17.53;;;0.40;1.00;;;;;;5054787;28;20218;-60
2023/01/25 01:39:21;;;;;;;26.53;19.20;;;0.40;1.00;;;;;;5050456;28;20546;-60
2023/01/25 01:41:48;;;;;;;24.60;17.53;;;0.20;1.00;;;;;;5049749;28;20431;-61
2023/01/25 01:44:18;;;;;;;24.77;16.83;;;0.20;1.00;;;;;;5071869;28;20203;-61
2023/01/25 01:46:54;;;;;;;23.13;16.47;;;0.30;1.00;;;;;;5039525;28;20261;-60
2023/01/25 01:49:27;;;;;;;25.83;17.53;;;0.30;1.00;;;;;;5056347;28;20303;-59
2023/01/25 01:52:15;;;;;;;23.60;16.47;;;0.40;1.00;;;;;;5054611;28;20374;-58
2023/01/25 01:54:52;;;;;;;27.13;17.20;;;0.40;1.00;;;;;;5055346;28;20210;-60
2023/01/25 01:57:31;;;;;;;27.07;17.43;;;0.50;1.00;;;;;;5039820;28;20387;-59
2023/01/25 02:00:07;;;;;;;24.33;17.40;;;0.50;1.00;;;;;;5039464;28;20734;-60
2023/01/25 02:02:40;;;;;;;26.63;18.53;;;0.50;1.00;;;;;;5031081;28;20284;-61
2023/01/25 02:05:19;;;;;;;27.20;19.27;;;0.50;1.00;;;;;;5054567;28;20235;-59
2023/01/25 02:07:49;;;;;;;24.57;17.33;;;0.60;1.00;;;;;;5038076;28;20190;-59
2023/01/25 02:10:19;;;;;;;23.93;17.60;;;0.40;1.00;;;;;;5022265;28;20251;-59
2023/01/25 02:12:48;;;;;;;23.07;17.37;;;0.40;1.00;;;;;;5039221;28;20526;-58
2023/01/25 02:15:15;;;;;;;23.00;16.70;;;0.30;1.00;;;;;;5029757;28;20203;-66
2023/01/25 02:17:42;;;;;;;25.93;17.70;;;0.30;1.00;;;;;;5056323;28;20558;-67
2023/01/25 02:20:36;;;;;;;23.47;16.47;;;0.20;1.00;;;;;;5053439;28;20198;-66
2023/01/25 02:23:39;;;;;;;24.53;18.17;;;0.20;1.00;;;;;;5060854;28;20223;-67
2023/01/25 02:26:07;;;;;;;23.63;16.73;;;0.30;1.00;;;;;;5054537;28;20231;-67
2023/01/25 02:29:01;;;;;;;25.07;16.93;;;0.30;1.00;;;;;;5031797;28;20203;-68
2023/01/25 02:31:28;;;;;;;25.13;16.67;;;0.20;1.00;;;;;;5055503;28;20868;-66
2023/01/25 02:33:55;;;;;;;22.57;16.40;;;0.20;1.00;;;;;;5032399;28;20686;-61
2023/01/25 02:36:29;;;;;;;23.33;16.50;;;0.20;1.00;;;;;;5055461;28;20564;-66
2023/01/25 02:39:16;;;;;;;23.83;16.00;;;0.20;1.00;;;;;;5046146;28;20207;-66
2023/01/25 02:41:47;;;;;;;29.33;19.63;;;0.10;1.00;;;;;;5029937;28;20207;-67
2023/01/25 02:44:29;;;;;;;25.80;18.53;;;0.10;1.00;;;;;;5043909;28;20221;-67
2023/01/25 02:46:59;;;;;;;29.27;20.83;;;0.20;1.00;;;;;;5038901;28;20338;-67
2023/01/25 02:49:26;;;;;;;31.23;20.60;;;0.10;1.00;;;;;;5054701;28;20227;-66
2023/01/25 02:51:56;;;;;;;28.57;19.03;;;0.00;1.00;;;;;;5052158;28;20191;-67
2023/01/25 02:54:25;;;;;;;29.80;20.73;;;0.00;1.00;;;;;;5037720;28;20199;-60
2023/01/25 02:56:53;;;;;;;29.43;19.30;;;0.00;1.00;;;;;;5054007;28;20204;-59
2023/01/25 02:59:22;;;;;;;28.07;18.63;;;-0.10;1.00;;;;;;5055465;28;20675;-60
2023/01/25 03:01:52;;;;;;;29.47;20.13;;;-0.10;1.00;;;;;;5054543;28;20666;-59
2023/01/25 03:04:19;;;;;;;30.60;20.17;;;-0.10;1.00;;;;;;5039208;28;20830;-58
2023/01/25 03:06:47;;;;;;;31.40;20.10;;;0.00;1.00;;;;;;5051748;28;20207;-63
2023/01/25 03:09:15;;;;;;;28.53;18.60;;;0.00;1.00;;;;;;5054429;28;20210;-61
2023/01/25 03:11:45;;;;;;;31.73;20.40;;;0.00;1.00;;;;;;5022531;28;20203;-60
2023/01/25 03:14:12;;;;;;;30.03;19.63;;;-0.10;1.00;;;;;;5038339;28;20209;-60
2023/01/25 03:16:42;;;;;;;29.37;19.47;;;0.00;1.00;;;;;;5054222;28;20217;-60
2023/01/25 03:19:09;;;;;;;30.43;20.40;;;-0.10;1.00;;;;;;5054155;28;20745;-59
2023/01/25 03:21:40;;;;;;;31.77;19.63;;;0.00;1.00;;;;;;5036392;28;20222;-61
2023/01/25 03:24:08;;;;;;;36.47;21.30;;;-0.10;1.00;;;;;;5054659;28;20199;-61
2023/01/25 03:29:38;;;;;;;32.80;20.53;;;-0.10;19.20;;;;;;5036725;28;20210;-61
2023/01/25 03:32:10;;;;;;;30.80;19.83;;;0.00;18.10;;;;;;5037999;28;20214;-60
2023/01/25 03:34:38;;;;;;;34.13;20.73;;;0.00;14.30;;;;;;5050192;28;20290;-60
2023/01/25 03:37:05;;;;;;;36.00;22.10;;;-0.10;11.50;;;;;;5038278;28;20947;-67
2023/01/25 03:39:34;;;;;;;32.07;21.17;;;-0.10;26.80;;;;;;5053291;28;20632;-67
2023/01/25 03:42:00;;;;;;;35.90;22.87;;;0.00;29.70;;;;;;5052717;28;20650;-68
2023/01/25 03:44:28;;;;;;;42.30;25.57;;;-0.10;32.90;;;;;;5054347;28;20195;-67
2023/01/25 03:46:55;;;;;;;41.40;24.73;;;-0.10;37.50;;;;;;5030491;28;20219;-64
2023/01/25 03:49:22;;;;;;;40.97;24.87;;;-0.10;39.20;;;;;;5031778;28;20252;-68
2023/01/25 03:51:51;;;;;;;36.20;23.07;;;-0.10;27.90;;;;;;5035582;28;20279;-69
2023/01/25 03:54:24;;;;;;;38.97;23.80;;;-0.10;28.10;;;;;;5053009;28;20210;-67
2023/01/25 03:56:51;;;;;;;39.53;23.53;;;-0.20;38.20;;;;;;5054241;28;20570;-68
2023/01/25 03:59:23;;;;;;;38.67;23.20;;;-0.20;33.20;;;;;;5054959;28;20666;-67
2023/01/25 04:01:51;;;;;;;33.90;20.90;;;-0.10;47.00;;;;;;5053578;28;20225;-69
2023/01/25 04:04:18;;;;;;;35.33;21.50;;;-0.10;37.30;;;;;;5055275;28;20764;-67
2023/01/25 04:06:47;;;;;;;35.50;21.80;;;0.00;35.00;;;;;;5022259;28;20660;-60
2023/01/25 04:09:14;;;;;;;35.57;21.13;;;-0.10;36.60;;;;;;5054069;28;20198;-59
2023/01/25 04:11:50;;;;;;;33.83;22.03;;;0.00;45.90;;;;;;5052966;28;20281;-60
2023/01/25 04:14:17;;;;;;;35.37;22.27;;;0.10;34.90;;;;;;5037228;28;20201;-60
2023/01/25 04:17:04;;;;;;;30.97;20.13;;;0.10;25.00;;;;;;5053578;28;20581;-60
2023/01/25 04:19:57;;;;;;;27.40;17.67;;;0.10;23.90;;;;;;5049951;28;20219;-60
2023/01/25 04:22:31;;;;;;;22.47;14.97;;;-0.10;38.70;;;;;;5054449;28;20203;-68
2023/01/25 04:25:02;;;;;;;24.37;15.07;;;-0.40;72.50;;;;;;5046515;28;20199;-65
2023/01/25 04:27:29;;;;;;;25.13;15.13;;;-0.40;99.90;;;;;;5019971;28;20293;-68
2023/01/25 04:30:03;;;;;;;26.70;16.43;;;-0.30;98.60;;;;;;5053764;28;20265;-67
2023/01/25 04:32:35;;;;;;;35.63;21.87;;;-0.20;94.50;;;;;;5054464;28;20362;-68
2023/01/25 04:35:05;;;;;;;35.37;21.83;;;-0.30;97.20;;;;;;5035837;28;20210;-68
2023/01/25 04:37:33;;;;;;;37.03;24.17;;;-0.30;99.90;;;;;;5055311;28;20830;-69
2023/01/25 04:40:00;;;;;;;37.73;24.53;;;-0.30;99.90;;;;;;5037092;28;20216;-59
2023/01/25 04:42:31;;;;;;;39.67;24.40;;;-0.20;99.90;;;;;;5036612;28;20205;-61
2023/01/25 04:44:58;;;;;;;39.10;24.67;;;-0.20;99.80;;;;;;5055245;28;20560;-59
2023/01/25 04:47:26;;;;;;;41.40;26.17;;;-0.20;97.20;;;;;;5052712;28;20215;-60
2023/01/25 04:49:53;;;;;;;39.60;25.77;;;-0.10;95.50;;;;;;5049617;28;20560;-59
2023/01/25 04:52:23;;;;;;;42.83;26.57;;;-0.20;93.10;;;;;;5066237;28;20196;-59
2023/01/25 04:54:50;;;;;;;40.93;25.77;;;-0.20;91.90;;;;;;5036517;28;20290;-58
2023/01/25 04:57:17;;;;;;;44.30;27.57;;;-0.30;99.90;;;;;;5052242;28;20260;-59
2023/01/25 04:59:49;;;;;;;40.17;25.50;;;-0.40;99.90;;;;;;5050494;28;20199;-58
2023/01/25 05:02:16;;;;;;;40.50;24.83;;;-0.40;99.90;;;;;;5033122;28;20307;-58
2023/01/25 05:04:43;;;;;;;38.07;24.70;;;-0.40;99.90;;;;;;5051613;28;20249;-59
2023/01/25 05:07:11;;;;;;;43.33;26.13;;;-0.40;99.90;;;;;;5050347;28;20211;-58
2023/01/25 05:09:38;;;;;;;41.67;26.83;;;-0.40;99.90;;;;;;5054084;28;20364;-58
2023/01/25 05:12:10;;;;;;;47.03;28.73;;;-0.40;99.90;;;;;;5053598;28;20198;-58
2023/01/25 05:14:50;;;;;;;43.30;26.43;;;-0.30;99.90;;;;;;5036762;28;20217;-59
2023/01/25 05:17:17;;;;;;;42.57;26.67;;;-0.30;99.90;;;;;;5052105;28;20287;-58
2023/01/25 05:19:44;;;;;;;43.93;27.47;;;-0.20;99.90;;;;;;5051869;28;20279;-59
2023/01/25 05:22:16;;;;;;;46.57;28.80;;;-0.30;99.90;;;;;;5067870;28;20286;-60
2023/01/25 05:24:48;;;;;;;44.97;27.37;;;-0.30;99.90;;;;;;5025756;28;20289;-59
2023/01/25 05:27:18;;;;;;;45.80;28.37;;;-0.40;99.90;;;;;;5035069;28;20219;-59
2023/01/25 05:29:54;;;;;;;50.23;30.33;;;-0.40;99.90;;;;;;5068529;28;20608;-59
2023/01/25 05:32:28;;;;;;;48.03;28.77;;;-0.30;99.90;;;;;;5054072;28;20199;-58
2023/01/25 05:34:55;;;;;;;53.37;31.20;;;-0.30;99.90;;;;;;5037813;28;20215;-59
2023/01/25 05:37:23;;;;;;;51.97;33.57;;;-0.20;99.90;;;;;;5033049;28;20305;-58
2023/01/25 05:39:57;;;;;;;51.33;32.27;;;-0.10;99.90;;;;;;5053644;28;20207;-59
2023/01/25 05:42:24;;;;;;;47.47;31.03;;;-0.10;99.90;;;;;;5036750;28;20214;-61
2023/01/25 05:44:53;;;;;;;49.23;30.43;;;0.00;99.90;;;;;;5053097;28;20260;-61
2023/01/25 05:47:20;;;;;;;49.57;31.13;;;0.10;99.90;;;;;;5070704;28;20426;-60
2023/01/25 05:49:47;;;;;;;52.27;31.77;;;0.20;99.90;;;;;;5053495;28;20199;-61
2023/01/25 05:52:21;;;;;;;50.63;29.70;;;0.20;99.90;;;;;;5037095;28;20196;-59
2023/01/25 05:54:48;;;;;;;49.80;30.60;;;0.20;99.90;;;;;;5053469;28;20199;-61
2023/01/25 05:57:16;;;;;;;48.97;31.17;;;0.20;96.10;;;;;;5039225;28;20297;-60
2023/01/25 05:59:43;;;;;;;46.83;31.57;;;0.20;74.70;;;;;;5038608;28;20625;-60
2023/01/25 06:02:18;;;;;;;50.43;32.87;;;0.20;53.50;;;;;;5053357;28;20642;-59
2023/01/25 06:04:45;;;;;;;47.13;30.27;;;0.10;65.00;;;;;;5034291;28;20341;-59
2023/01/25 06:07:13;;;;;;;51.47;31.83;;;0.00;89.60;;;;;;5049947;28;20265;-60
2023/01/25 06:09:41;;;;;;;53.23;31.50;;;0.10;98.20;;;;;;5038076;28;20481;-58
2023/01/25 06:12:09;;;;;;;46.80;29.53;;;0.10;94.10;;;;;;5054056;28;20282;-66
2023/01/25 06:14:36;;;;;;;45.80;27.80;;;0.00;94.40;;;;;;5053916;28;20187;-66
2023/01/25 06:17:03;;;;;;;43.53;28.17;;;-0.10;99.90;;;;;;5047796;28;20207;-58
2023/01/25 06:19:50;;;;;;;49.27;29.27;;;0.00;99.90;;;;;;5055192;28;20212;-58
2023/01/25 06:22:51;;;;;;;43.53;25.73;;;0.00;99.90;;;;;;5054124;28;20204;-58
2023/01/25 06:25:18;;;;;;;47.27;29.27;;;0.00;99.90;;;;;;5055087;28;20194;-66
2023/01/25 06:27:45;;;;;;;42.77;26.60;;;0.10;99.90;;;;;;5051455;28;20302;-65
2023/01/25 06:30:12;;;;;;;46.27;26.67;;;0.00;99.90;;;;;;5052486;28;20199;-66
2023/01/25 06:32:39;;;;;;;40.77;24.80;;;0.10;99.90;;;;;;5036054;28;20199;-67
2023/01/25 06:35:07;;;;;;;47.83;28.03;;;0.10;99.90;;;;;;5035625;28;20736;-59
2023/01/25 06:37:34;;;;;;;41.17;25.37;;;0.10;99.90;;;;;;5036232;28;20556;-58
2023/01/25 06:40:01;;;;;;;43.77;26.23;;;0.20;99.90;;;;;;5051452;28;20200;-58
2023/01/25 06:42:28;;;;;;;40.90;25.73;;;0.20;99.90;;;;;;5053822;28;20275;-66
2023/01/25 06:44:55;;;;;;;44.30;26.23;;;0.20;99.90;;;;;;5053790;28;20693;-60
2023/01/25 06:47:22;;;;;;;40.57;25.63;;;0.20;99.90;;;;;;5038661;28;20273;-59
2023/01/25 06:49:49;;;;;;;42.90;27.37;;;0.30;99.90;;;;;;5056046;28;20234;-59
2023/01/25 06:52:17;;;;;;;41.97;26.40;;;0.30;99.90;;;;;;5053895;28;20227;-59
2023/01/25 06:54:44;;;;;;;42.07;24.40;;;0.30;98.00;;;;;;5055820;28;20248;-59
2023/01/25 06:57:11;;;;;;;41.80;23.83;;;0.30;99.90;;;;;;5055370;28;20280;-57
2023/01/25 06:59:38;;;;;;;41.07;23.70;;;0.30;98.40;;;;;;5056218;28;20684;-59
2023/01/25 07:02:05;;;;;;;47.67;25.80;;;0.10;91.30;;;;;;5054577;28;20361;-66
2023/01/25 07:04:32;;;;;;;42.90;24.93;;;0.10;99.90;;;;;;5056175;28;20798;-59
2023/01/25 07:06:59;;;;;;;43.40;25.43;;;0.20;99.90;;;;;;5055162;28;20739;-59
2023/01/25 07:09:26;;;;;;;46.87;25.23;;;0.10;99.90;;;;;;5055186;28;20195;-58
2023/01/25 07:11:53;;;;;;;42.30;24.63;;;0.10;99.90;;;;;;5056225;28;20225;-67
2023/01/25 07:14:20;;;;;;;42.63;23.33;;;0.00;99.90;;;;;;5039072;28;20203;-66
2023/01/25 07:16:47;;;;;;;56.57;33.00;;;0.00;99.90;;;;;;5057757;28;20542;-67
2023/01/25 07:19:14;;;;;;;51.60;26.17;;;-0.10;99.90;;;;;;5054248;28;20196;-66
2023/01/25 07:21:47;;;;;;;54.47;30.30;;;0.00;99.90;;;;;;5054512;28;20249;-62
2023/01/25 07:24:33;;;;;;;48.10;27.10;;;0.10;99.90;;;;;;5057304;28;20629;-67
2023/01/25 07:27:00;;;;;;;51.40;27.10;;;0.20;99.90;;;;;;5054958;28;20321;-68
2023/01/25 07:29:27;;;;;;;51.43;26.93;;;0.20;99.90;;;;;;5045029;28;20737;-66
2023/01/25 07:31:54;;;;;;;46.83;25.83;;;0.30;99.90;;;;;;5057154;28;20755;-67
2023/01/25 07:34:21;;;;;;;49.70;27.30;;;0.20;99.90;;;;;;5054755;28;20195;-66
2023/01/25 07:36:48;;;;;;;45.27;26.73;;;0.20;99.90;;;;;;5051640;28;20195;-67
2023/01/25 07:39:17;;;;;;;47.57;27.03;;;0.30;99.90;;;;;;5055721;28;20207;-66
2023/01/25 07:41:44;;;;;;;51.93;28.13;;;0.20;99.90;;;;;;5032281;28;20199;-66
2023/01/25 07:44:12;;;;;;;54.77;30.27;;;0.20;99.90;;;;;;5053089;28;20199;-58
2023/01/25 07:46:44;;;;;;;49.10;28.00;;;0.30;99.90;;;;;;5036214;28;20617;-58
2023/01/25 07:49:11;;;;;;;46.80;25.53;;;0.30;99.90;;;;;;5055157;28;20747;-58
2023/01/25 07:51:38;;;;;;;49.03;26.53;;;0.10;99.90;;;;;;5052919;28;20693;-58
2023/01/25 07:54:05;;;;;;;50.47;27.43;;;0.10;99.90;;;;;;5037328;28;20226;-58
2023/01/25 07:56:35;;;;;;;47.87;27.50;;;0.10;99.90;;;;;;5055020;28;20195;-59
2023/01/25 07:59:03;;;;;;;53.13;31.10;;;0.20;99.90;;;;;;5038518;28;20207;-65
2023/01/25 08:01:33;;;;;;;55.30;29.43;;;0.30;99.90;;;;;;5053587;28;20306;-65
2023/01/25 08:04:02;;;;;;;61.10;37.17;;;0.40;99.90;;;;;;5054882;28;20243;-67
2023/01/25 08:06:34;;;;;;;56.37;32.03;;;0.40;99.90;;;;;;5035387;28;20210;-66
2023/01/25 08:09:18;;;;;;;54.37;32.77;;;0.30;99.90;;;;;;5053602;28;20350;-58
2023/01/25 08:11:48;;;;;;;51.70;29.17;;;0.30;99.90;;;;;;5053966;28;20701;-58
2023/01/25 08:14:15;;;;;;;53.37;31.10;;;0.30;99.90;;;;;;5051250;28;20550;-57
2023/01/25 08:16:42;;;;;;;56.80;31.00;;;0.20;99.90;;;;;;5054612;28;20219;-58
2023/01/25 08:19:10;;;;;;;54.90;30.23;;;0.00;99.90;;;;;;5047158;28;20231;-58
2023/01/25 08:21:37;;;;;;;56.17;30.17;;;-0.20;99.90;;;;;;5036068;28;20199;-58
2023/01/25 08:24:06;;;;;;;52.80;30.50;;;-0.20;99.90;;;;;;5043324;28;20191;-59
2023/01/25 08:26:34;;;;;;;59.03;33.40;;;-0.30;99.90;;;;;;5050320;28;20258;-59
2023/01/25 08:29:02;;;;;;;56.30;29.50;;;-0.40;99.90;;;;;;5044525;28;20203;-58
2023/01/25 08:31:32;;;;;;;61.37;32.23;;;-0.40;99.90;;;;;;5050631;28;20207;-58
2023/01/25 08:34:00;;;;;;;84.63;41.40;;;-0.40;99.90;;;;;;5051037;28;20195;-65
2023/01/25 08:36:27;;;;;;;65.27;31.53;;;-0.40;99.90;;;;;;5068597;28;20195;-57
2023/01/25 08:38:59;;;;;;;65.87;32.00;;;-0.40;1.00;;;;;;5051131;28;20226;-57
2023/01/25 08:41:29;;;;;;;68.30;31.77;;;-0.30;1.00;;;;;;5048057;28;20673;-58
2023/01/25 08:43:56;;;;;;;60.00;32.53;;;-0.40;99.90;;;;;;5050938;28;20187;-59
2023/01/25 08:46:25;;;;;;;60.17;28.73;;;-0.30;1.00;;;;;;5047902;28;20203;-57
2023/01/25 08:48:57;;;;;;;61.80;29.87;;;-0.40;1.00;;;;;;5043369;28;20203;-59
2023/01/25 08:51:25;;;;;;;68.93;34.73;;;-0.30;1.00;;;;;;5045948;28;20756;-59
2023/01/25 08:53:52;;;;;;;64.73;30.93;;;-0.40;1.00;;;;;;5048614;28;20378;-57
2023/01/25 08:56:19;;;;;;;72.63;34.07;;;-0.30;1.00;;;;;;5048507;28;20187;-58
2023/01/25 08:58:48;;;;;;;65.63;33.60;;;-0.20;1.00;;;;;;5021808;28;20195;-58
2023/01/25 09:01:18;;;;;;;65.93;34.03;;;-0.20;1.00;;;;;;5028295;28;20726;-58
2023/01/25 09:03:47;;;;;;;68.17;32.43;;;-0.30;1.00;;;;;;5047936;28;20258;-58
2023/01/25 09:06:16;;;;;;;62.60;31.60;;;-0.20;1.00;;;;;;5049080;28;20278;-58
2023/01/25 09:08:43;;;;;;;65.23;30.83;;;-0.30;1.00;;;;;;5049149;28;20211;-58
2023/01/25 09:11:13;;;;;;;60.63;29.90;;;-0.30;1.00;;;;;;5049398;28;20375;-59
2023/01/25 09:13:42;;;;;;;64.63;30.63;;;-0.20;1.00;;;;;;5049040;28;20272;-59
2023/01/25 09:16:13;;;;;;;65.03;32.13;;;-0.10;1.00;;;;;;5057654;28;20201;-57
2023/01/25 09:18:42;;;;;;;63.97;31.70;;;-0.20;1.00;;;;;;5036145;28;20195;-58
2023/01/25 09:21:14;;;;;;;68.53;31.83;;;-0.10;1.00;;;;;;5054676;28;20195;-65
2023/01/25 09:23:43;;;;;;;57.07;28.70;;;0.00;1.00;;;;;;5046430;28;20198;-66
2023/01/25 09:26:30;;;;;;;60.50;29.63;;;-0.10;99.90;;;;;;5054669;28;20195;-65
2023/01/25 09:28:58;;;;;;;62.47;32.43;;;-0.10;99.90;;;;;;5038145;28;20730;-66
2023/01/25 09:31:25;;;;;;;69.17;34.43;;;-0.20;99.90;;;;;;5053755;28;20206;-66
2023/01/25 09:34:12;;;;;;;63.33;30.13;;;-0.20;99.90;;;;;;5054244;28;20187;-65
2023/01/25 09:36:45;;;;;;;73.13;34.67;;;-0.30;1.00;;;;;;5075285;28;20299;-58
2023/01/25 09:39:12;;;;;;;63.83;32.80;;;-0.40;1.00;;;;;;5024104;28;20199;-65
2023/01/25 09:42:13;;;;;;;70.77;33.07;;;-0.20;1.00;;;;;;5052282;28;20206;-59
2023/01/25 09:44:59;;;;;;;69.07;30.93;;;-0.20;1.00;;;;;;5040655;28;20209;-58
2023/01/25 09:48:08;;;;;;;66.70;34.23;;;-0.10;1.00;;;;;;5051599;28;20673;-58
2023/01/25 09:50:37;;;;;;;63.77;29.33;;;-0.10;1.00;;;;;;5054743;28;20281;-65
2023/01/25 09:53:10;;;;;;;69.37;32.30;;;-0.30;1.00;;;;;;5049440;28;20191;-63
2023/01/25 09:55:38;;;;;;;75.53;33.07;;;-0.40;1.00;;;;;;5052738;28;20215;-63
2023/01/25 09:58:17;;;;;;;75.80;34.40;;;-0.40;1.00;;;;;;5055669;28;20203;-67
2023/01/25 10:00:46;;;;;;;76.03;35.37;;;-0.20;1.00;;;;;;5048734;28;20474;-65
2023/01/25 10:03:31;;;;;;;70.13;34.27;;;-0.20;1.00;;;;;;5036677;28;20214;-65
2023/01/25 10:06:00;;;;;;;74.77;35.50;;;0.00;1.00;;;;;;5055712;28;20203;-64
2023/01/25 10:09:01;;;;;;;69.83;33.30;;;0.30;1.00;;;;;;5071342;28;20717;-67
2023/01/25 10:11:31;;;;;;;66.50;30.90;;;0.20;1.00;;;;;;5036429;28;20321;-67
2023/01/25 10:13:59;;;;;;;55.87;30.13;;;0.00;1.00;;;;;;5038354;28;20255;-67
2023/01/25 10:16:52;;;;;;;63.40;30.57;;;-0.10;1.00;;;;;;5051654;28;20206;-65
2023/01/25 10:19:28;;;;;;;67.07;31.20;;;0.00;1.00;;;;;;5052550;28;20277;-65
2023/01/25 10:21:59;;;;;;;61.80;30.27;;;0.30;1.00;;;;;;5053954;28;20207;-65
2023/01/25 10:24:41;;;;;;;50.90;25.80;;;0.30;99.90;;;;;;5071795;28;20211;-66
2023/01/25 10:27:46;;;;;;;46.83;23.57;;;0.40;99.90;;;;;;5054115;28;20230;-67
2023/01/25 10:30:39;;;;;;;47.20;24.70;;;0.40;99.90;;;;;;5037573;28;20379;-66
2023/01/25 10:33:13;;;;;;;40.80;21.73;;;0.50;99.90;;;;;;5055461;28;20278;-66
2023/01/25 10:35:44;;;;;;;41.63;20.97;;;0.40;99.90;;;;;;5052645;28;20199;-67
2023/01/25 10:38:17;;;;;;;43.67;23.23;;;0.40;99.90;;;;;;5054177;28;20187;-67
2023/01/25 10:41:16;;;;;;;41.27;22.47;;;0.40;99.90;;;;;;5055473;28;20256;-67
2023/01/25 10:43:43;;;;;;;41.77;22.43;;;0.60;99.90;;;;;;5031082;28;20279;-67
2023/01/25 10:46:22;;;;;;;41.60;22.77;;;0.60;99.90;;;;;;5054270;28;20283;-67
2023/01/25 10:48:49;;;;;;;40.63;23.93;;;0.60;99.90;;;;;;5054204;28;20238;-67
2023/01/25 10:51:34;;;;;;;47.90;25.47;;;0.60;99.90;;;;;;5052024;28;20559;-64
2023/01/25 10:54:05;;;;;;;51.07;27.10;;;0.70;99.90;;;;;;5054185;28;20547;-64
2023/01/25 10:56:35;;;;;;;53.80;30.13;;;0.80;99.90;;;;;;5069584;28;20562;-65
2023/01/25 10:59:27;;;;;;;46.37;25.83;;;0.60;96.00;;;;;;5052785;28;20669;-62
2023/01/25 11:01:54;;;;;;;46.23;25.40;;;0.60;98.00;;;;;;5046563;28;20229;-64
2023/01/25 11:04:40;;;;;;;46.27;25.40;;;0.40;93.10;;;;;;5054065;28;20258;-65
2023/01/25 11:07:28;;;;;;;47.77;26.60;;;0.30;99.90;;;;;;5037687;28;21101;-64
2023/01/25 11:09:55;;;;;;;49.67;28.13;;;0.30;99.90;;;;;;5028470;28;20548;-63
2023/01/25 11:12:22;;;;;;;51.10;28.03;;;0.40;99.90;;;;;;5037333;28;20255;-65
2023/01/25 11:14:50;;;;;;;53.33;28.53;;;0.60;99.90;;;;;;5054883;28;20207;-65
2023/01/25 11:17:26;;;;;;;52.23;27.17;;;0.60;99.90;;;;;;5053010;28;20603;-65
2023/01/25 11:20:13;;;;;;;51.60;29.23;;;0.70;99.90;;;;;;5035622;28;20530;-65
2023/01/25 11:22:56;;;;;;;52.57;27.87;;;0.50;94.60;;;;;;5054152;28;20221;-65
2023/01/25 11:25:26;;;;;;;65.17;35.73;;;0.50;99.90;;;;;;5053255;28;20298;-64
2023/01/25 11:28:10;;;;;;;61.03;32.87;;;0.60;99.90;;;;;;5054037;28;20304;-65
2023/01/25 11:30:37;;;;;;;66.50;37.43;;;0.70;99.90;;;;;;5054095;28;20198;-64
2023/01/25 11:33:12;;;;;;;60.90;33.37;;;0.50;94.70;;;;;;5053023;28;20226;-64
2023/01/25 11:36:05;;;;;;;55.33;29.53;;;0.40;99.90;;;;;;5052152;28;20577;-67
2023/01/25 11:38:32;;;;;;;60.10;32.47;;;0.40;99.90;;;;;;5055333;28;20630;-68
2023/01/25 11:41:07;;;;;;;59.47;30.17;;;0.60;99.90;;;;;;5052369;28;20413;-65
2023/01/25 11:44:04;;;;;;;62.80;31.60;;;0.60;85.80;;;;;;5037007;28;20203;-66
2023/01/25 11:46:41;;;;;;;57.60;28.43;;;0.70;96.80;;;;;;5054829;28;20256;-65
2023/01/25 11:49:33;;;;;;;53.83;29.13;;;0.80;68.70;;;;;;5045319;28;20203;-66
2023/01/25 11:52:26;;;;;;;59.93;31.37;;;0.80;50.30;;;;;;5054159;28;20234;-65
2023/01/25 11:55:22;;;;;;;54.13;29.37;;;0.80;30.30;;;;;;5037862;28;20191;-67
2023/01/25 11:58:11;;;;;;;46.97;28.33;;;0.80;25.40;;;;;;5036002;28;20227;-65
2023/01/25 12:01:19;;;;;;;51.53;28.57;;;0.90;25.00;;;;;;5053123;28;20222;-66
2023/01/25 12:04:04;;;;;;;48.33;27.53;;;0.90;12.90;;;;;;5051073;28;20239;-66
2023/01/25 12:06:52;;;;;;;51.10;27.43;;;0.90;7.20;;;;;;5053799;28;20537;-64
2023/01/25 12:09:35;;;;;;;50.70;28.63;;;1.00;3.70;;;;;;5036952;28;20273;-65
2023/01/25 12:12:23;;;;;;;50.20;27.23;;;0.90;1.00;;;;;;5037131;28;20260;-64
2023/01/25 12:15:06;;;;;;;49.93;28.07;;;0.80;1.00;;;;;;5054211;28;20289;-64
2023/01/25 12:17:42;;;;;;;47.13;26.73;;;0.70;1.00;;;;;;5037677;28;20211;-66
2023/01/25 12:20:36;;;;;;;55.47;28.63;;;0.20;45.90;;;;;;5053073;28;20251;-65
2023/01/25 12:23:24;;;;;;;60.43;29.70;;;0.20;99.90;;;;;;5037246;28;20265;-68
2023/01/25 12:25:50;;;;;;;63.67;31.50;;;0.00;99.90;;;;;;5052749;28;20226;-64
2023/01/25 12:28:30;;;;;;;64.53;33.27;;;0.10;99.90;;;;;;5051448;28;20707;-66
2023/01/25 12:31:00;;;;;;;58.40;30.47;;;0.20;99.90;;;;;;5054773;28;20637;-64
2023/01/25 12:33:41;;;;;;;62.73;32.87;;;0.20;99.90;;;;;;5055468;28;20191;-65
2023/01/25 12:36:30;;;;;;;51.43;27.33;;;0.30;99.90;;;;;;5053463;28;20221;-65
2023/01/25 12:39:11;;;;;;;56.33;27.13;;;0.20;99.90;;;;;;5060933;28;20293;-65
2023/01/25 12:41:47;;;;;;;61.43;32.43;;;0.30;99.90;;;;;;5061098;28;20745;-65
2023/01/25 12:44:23;;;;;;;52.87;28.53;;;0.10;99.90;;;;;;5043390;28;20661;-67
2023/01/25 12:47:09;;;;;;;55.37;28.83;;;0.00;99.90;;;;;;5044217;28;20206;-65
2023/01/25 12:49:52;;;;;;;53.00;29.03;;;0.00;99.90;;;;;;5059465;28;20293;-66
2023/01/25 12:52:33;;;;;;;57.13;29.47;;;0.00;99.90;;;;;;5059693;28;20252;-65
2023/01/25 12:55:14;;;;;;;53.73;30.03;;;0.20;99.90;;;;;;5061150;28;21210;-67
2023/01/25 12:58:12;;;;;;;63.37;37.20;;;0.30;99.90;;;;;;5062796;28;20253;-66
2023/01/25 13:00:51;;;;;;;59.00;34.50;;;0.20;99.90;;;;;;5059667;28;20252;-66
2023/01/25 13:03:28;;;;;;;55.27;30.40;;;0.10;99.90;;;;;;5059496;28;20222;-64
2023/01/25 13:06:07;;;;;;;52.40;25.97;;;-0.10;99.90;;;;;;5042315;28;20217;-63
2023/01/25 13:08:58;;;;;;;52.03;28.50;;;0.10;99.90;;;;;;5060586;28;20207;-66